Time;durP1;ratioP1;P1;durP2;ratioP2;P2;SDS_P1;SDS_P2;PMS_P1;PMS_P2;Temp;Humidity;BMP_temperature;BMP_pressure;BME280_temperature;BME280_humidity;BME280_pressure;Samples;Min_cycle;Max_cycle;Signal;HPM_P1;HPM_P2
2022/07/08 00:01:38;;;;;;;19.33;3.63;;;;;;;;;;5028721;28;20478;-58
2022/07/08 00:04:04;;;;;;;13.98;2.92;;;;;;;;;;5029804;28;20036;-58
2022/07/08 00:06:30;;;;;;;21.15;3.53;;;;;;;;;;5032718;28;20112;-59
2022/07/08 00:08:57;;;;;;;13.57;3.15;;;;;;;;;;5032969;28;20515;-59
2022/07/08 00:11:23;;;;;;;24.65;4.72;;;;;;;;;;5020544;28;20057;-59
2022/07/08 00:13:49;;;;;;;13.20;3.05;;;;;;;;;;5030744;28;20153;-59
2022/07/08 00:16:15;;;;;;;14.82;3.55;;;;;;;;;;5032177;28;20033;-59
2022/07/08 00:18:41;;;;;;;21.08;4.28;;;;;;;;;;5032948;28;20044;-59
2022/07/08 00:21:08;;;;;;;18.75;3.78;;;;;;;;;;5032000;28;20041;-59
2022/07/08 00:23:34;;;;;;;21.55;4.40;;;;;;;;;;5023513;28;20076;-58
2022/07/08 00:26:00;;;;;;;12.13;3.42;;;;;;;;;;5014663;28;20053;-57
2022/07/08 00:28:26;;;;;;;18.05;3.58;;;;;;;;;;5027533;28;20679;-59
2022/07/08 00:30:52;;;;;;;16.48;3.72;;;;;;;;;;5026908;28;20029;-59
2022/07/08 00:33:18;;;;;;;16.55;3.67;;;;;;;;;;5033341;28;20033;-58
2022/07/08 00:35:44;;;;;;;16.35;3.80;;;;;;;;;;5032753;28;20034;-58
2022/07/08 00:38:10;;;;;;;17.90;3.58;;;;;;;;;;5032990;28;20041;-59
2022/07/08 00:40:36;;;;;;;11.48;3.22;;;;;;;;;;5031345;28;20632;-58
2022/07/08 00:43:02;;;;;;;15.90;3.72;;;;;;;;;;5030745;28;20037;-58
2022/07/08 00:45:28;;;;;;;16.27;3.65;;;;;;;;;;5031640;28;20116;-57
2022/07/08 00:47:54;;;;;;;17.02;3.38;;;;;;;;;;5031699;28;20025;-58
2022/07/08 00:50:20;;;;;;;12.48;3.00;;;;;;;;;;5032269;28;20029;-59
2022/07/08 00:52:47;;;;;;;19.20;3.92;;;;;;;;;;5033041;28;20029;-58
2022/07/08 00:55:13;;;;;;;14.63;3.75;;;;;;;;;;5031950;28;20040;-59
2022/07/08 00:57:40;;;;;;;19.45;3.75;;;;;;;;;;5030489;28;20795;-59
2022/07/08 01:00:06;;;;;;;13.80;3.90;;;;;;;;;;5031087;28;20114;-57
2022/07/08 01:02:32;;;;;;;17.85;4.05;;;;;;;;;;5031831;28;20033;-60
2022/07/08 01:04:58;;;;;;;15.43;2.85;;;;;;;;;;5031291;28;20477;-61
2022/07/08 01:07:24;;;;;;;13.00;2.88;;;;;;;;;;5032478;28;20083;-61
2022/07/08 01:09:51;;;;;;;14.00;3.60;;;;;;;;;;5032331;28;20384;-61
2022/07/08 01:12:17;;;;;;;13.88;4.35;;;;;;;;;;5030268;28;20451;-61
2022/07/08 01:14:44;;;;;;;17.55;3.70;;;;;;;;;;5029978;28;20033;-61
2022/07/08 01:17:10;;;;;;;20.33;3.80;;;;;;;;;;5031493;28;20173;-60
2022/07/08 01:19:36;;;;;;;15.27;3.90;;;;;;;;;;5031493;28;20090;-60
2022/07/08 01:22:02;;;;;;;16.65;4.28;;;;;;;;;;5030978;28;20512;-60
2022/07/08 01:24:28;;;;;;;14.50;3.55;;;;;;;;;;5029774;28;20037;-61
2022/07/08 01:26:54;;;;;;;14.52;3.45;;;;;;;;;;5031353;28;20170;-61
2022/07/08 01:29:20;;;;;;;17.73;3.38;;;;;;;;;;5027155;28;20476;-59
2022/07/08 01:31:51;;;;;;;13.90;3.65;;;;;;;;;;5031105;28;20029;-59
2022/07/08 01:34:17;;;;;;;16.08;4.07;;;;;;;;;;5032227;28;20034;-59
2022/07/08 01:36:43;;;;;;;17.77;3.55;;;;;;;;;;5032027;28;20037;-57
2022/07/08 01:39:09;;;;;;;17.73;3.70;;;;;;;;;;5029737;28;20105;-60
2022/07/08 01:41:35;;;;;;;13.18;3.28;;;;;;;;;;5033271;28;20025;-60
2022/07/08 01:44:01;;;;;;;18.30;4.03;;;;;;;;;;5037815;28;20033;-60
2022/07/08 01:46:26;;;;;;;15.32;3.67;;;;;;;;;;5030358;28;20040;-61
2022/07/08 01:48:52;;;;;;;14.63;3.72;;;;;;;;;;5031313;28;20036;-59
2022/07/08 01:51:18;;;;;;;24.83;4.38;;;;;;;;;;5029903;28;20109;-61
2022/07/08 01:53:44;;;;;;;17.77;2.92;;;;;;;;;;5029696;28;20025;-61
2022/07/08 01:56:10;;;;;;;18.08;3.72;;;;;;;;;;5030677;28;20677;-60
2022/07/08 01:58:36;;;;;;;17.60;3.78;;;;;;;;;;5023997;28;20476;-60
2022/07/08 02:01:02;;;;;;;16.90;3.40;;;;;;;;;;5029874;28;20108;-59
2022/07/08 02:03:28;;;;;;;15.18;3.65;;;;;;;;;;5035369;28;20033;-60
2022/07/08 02:05:54;;;;;;;22.90;4.25;;;;;;;;;;5035519;28;20072;-60
2022/07/08 02:08:23;;;;;;;20.58;4.13;;;;;;;;;;5032860;28;20524;-61
2022/07/08 02:13:33;;;;;;;25.13;4.07;;;;;;;;;;5030779;28;20033;-61
2022/07/08 02:16:00;;;;;;;15.02;3.78;;;;;;;;;;5031436;28;20064;-61
2022/07/08 02:18:26;;;;;;;13.90;3.60;;;;;;;;;;5030368;28;20026;-61
2022/07/08 02:20:52;;;;;;;13.45;2.85;;;;;;;;;;5031189;28;20032;-60
2022/07/08 02:23:18;;;;;;;13.68;4.15;;;;;;;;;;5028755;28;20504;-61
2022/07/08 02:25:43;;;;;;;17.98;4.28;;;;;;;;;;5030892;28;20493;-60
2022/07/08 02:28:10;;;;;;;17.92;3.72;;;;;;;;;;5028392;28;20046;-60
2022/07/08 02:30:36;;;;;;;20.70;4.60;;;;;;;;;;5025701;28;20029;-59
2022/07/08 02:33:02;;;;;;;13.13;3.78;;;;;;;;;;5030540;28;20481;-60
2022/07/08 02:35:28;;;;;;;15.32;3.42;;;;;;;;;;5036513;28;20112;-60
2022/07/08 02:37:54;;;;;;;15.52;3.30;;;;;;;;;;5030307;28;20028;-60
2022/07/08 02:40:20;;;;;;;19.70;3.90;;;;;;;;;;5031574;28;20037;-60
2022/07/08 02:42:46;;;;;;;23.00;4.47;;;;;;;;;;5037888;28;20049;-60
2022/07/08 02:45:12;;;;;;;10.18;2.72;;;;;;;;;;5029228;28;20033;-60
2022/07/08 02:47:38;;;;;;;15.05;3.13;;;;;;;;;;5029932;28;20366;-60
2022/07/08 02:50:05;;;;;;;16.45;3.33;;;;;;;;;;5026871;28;20076;-61
2022/07/08 02:52:31;;;;;;;14.38;3.88;;;;;;;;;;5029497;28;20182;-60
2022/07/08 02:54:57;;;;;;;18.15;3.30;;;;;;;;;;5029182;28;20029;-60
2022/07/08 02:57:23;;;;;;;16.25;3.47;;;;;;;;;;5031326;28;20029;-61
2022/07/08 02:59:49;;;;;;;18.67;3.78;;;;;;;;;;5033803;28;20082;-60
2022/07/08 03:02:15;;;;;;;16.60;3.58;;;;;;;;;;5034405;28;20030;-60
2022/07/08 03:04:41;;;;;;;18.13;3.65;;;;;;;;;;5025331;28;20109;-60
2022/07/08 03:07:08;;;;;;;24.73;5.03;;;;;;;;;;5041116;28;20373;-60
2022/07/08 03:09:34;;;;;;;13.18;3.33;;;;;;;;;;5031774;28;20029;-61
2022/07/08 03:12:00;;;;;;;16.17;3.85;;;;;;;;;;5029403;28;20037;-59
2022/07/08 03:14:26;;;;;;;13.50;3.70;;;;;;;;;;5036107;28;20091;-60
2022/07/08 03:16:52;;;;;;;16.17;4.47;;;;;;;;;;5028954;28;20033;-61
2022/07/08 03:19:18;;;;;;;11.23;3.42;;;;;;;;;;5029613;28;20091;-60
2022/07/08 03:21:44;;;;;;;19.98;4.13;;;;;;;;;;5028220;28;20026;-60
2022/07/08 03:24:10;;;;;;;23.85;3.45;;;;;;;;;;5031844;28;20029;-61
2022/07/08 03:26:36;;;;;;;17.48;3.83;;;;;;;;;;5031370;28;20135;-61
2022/07/08 03:29:02;;;;;;;18.77;3.67;;;;;;;;;;5024397;28;20025;-61
2022/07/08 03:31:28;;;;;;;17.27;3.53;;;;;;;;;;5029688;28;20116;-60
2022/07/08 03:33:54;;;;;;;11.00;3.22;;;;;;;;;;5031565;28;20113;-61
2022/07/08 03:36:20;;;;;;;12.82;3.17;;;;;;;;;;5027435;28;20488;-60
2022/07/08 03:38:46;;;;;;;22.20;4.35;;;;;;;;;;5026982;28;20108;-60
2022/07/08 03:41:20;;;;;;;17.65;2.92;;;;;;;;;;5030830;28;20654;-60
2022/07/08 03:43:47;;;;;;;23.45;2.97;;;;;;;;;;5028533;28;20036;-60
2022/07/08 03:46:13;;;;;;;14.55;3.50;;;;;;;;;;5030170;28;20670;-61
2022/07/08 03:48:39;;;;;;;16.77;2.97;;;;;;;;;;5026226;28;20030;-61
2022/07/08 03:51:06;;;;;;;15.90;3.15;;;;;;;;;;5024074;28;20414;-60
2022/07/08 03:53:32;;;;;;;11.55;3.15;;;;;;;;;;5027312;28;20128;-60
2022/07/08 03:55:58;;;;;;;15.57;3.00;;;;;;;;;;5036707;28;20501;-60
2022/07/08 03:58:24;;;;;;;18.10;2.80;;;;;;;;;;5029646;28;20044;-61
2022/07/08 04:00:50;;;;;;;16.52;3.75;;;;;;;;;;5027634;28;20101;-60
2022/07/08 04:03:16;;;;;;;15.02;3.13;;;;;;;;;;5028764;28;20037;-59
2022/07/08 04:05:42;;;;;;;11.20;2.70;;;;;;;;;;5038545;28;20075;-60
2022/07/08 04:08:08;;;;;;;12.43;2.80;;;;;;;;;;5035832;28;20056;-60
2022/07/08 04:10:34;;;;;;;13.93;2.72;;;;;;;;;;5037598;28;20465;-61
2022/07/08 04:13:00;;;;;;;10.90;3.53;;;;;;;;;;5029176;28;20029;-61
2022/07/08 04:15:26;;;;;;;11.40;2.60;;;;;;;;;;5036143;28;20463;-61
2022/07/08 04:17:52;;;;;;;15.77;3.97;;;;;;;;;;5032984;28;20031;-59
2022/07/08 04:20:18;;;;;;;14.98;3.20;;;;;;;;;;5029350;28;20116;-62
2022/07/08 04:22:44;;;;;;;9.73;2.97;;;;;;;;;;5016737;28;20375;-60
2022/07/08 04:25:11;;;;;;;10.05;2.53;;;;;;;;;;5029786;28;20096;-61
2022/07/08 04:27:37;;;;;;;12.13;2.72;;;;;;;;;;5020638;28;20046;-61
2022/07/08 04:30:04;;;;;;;15.50;3.20;;;;;;;;;;5009103;28;20026;-60
2022/07/08 04:32:30;;;;;;;13.90;3.30;;;;;;;;;;5008711;28;20034;-61
2022/07/08 04:34:59;;;;;;;18.50;3.08;;;;;;;;;;5010344;28;20068;-61
2022/07/08 04:37:26;;;;;;;15.13;3.50;;;;;;;;;;5010314;28;20077;-61
2022/07/08 04:39:52;;;;;;;14.63;3.63;;;;;;;;;;5010084;28;20460;-61
2022/07/08 04:42:18;;;;;;;11.45;3.10;;;;;;;;;;5008336;28;20038;-61
2022/07/08 04:44:44;;;;;;;26.60;3.83;;;;;;;;;;5009032;28;20109;-61
2022/07/08 04:47:10;;;;;;;15.40;3.10;;;;;;;;;;5007890;28;20026;-61
2022/07/08 04:49:36;;;;;;;11.85;3.13;;;;;;;;;;5008336;28;20037;-59
2022/07/08 04:52:06;;;;;;;9.70;2.95;;;;;;;;;;5014596;28;20077;-61
2022/07/08 04:54:32;;;;;;;14.15;3.05;;;;;;;;;;5016148;28;20034;-60
2022/07/08 04:56:58;;;;;;;12.93;2.80;;;;;;;;;;5009784;28;20037;-61
2022/07/08 04:59:24;;;;;;;13.77;3.17;;;;;;;;;;5012204;28;20034;-61
2022/07/08 05:01:50;;;;;;;18.15;3.25;;;;;;;;;;5013438;28;20030;-60
2022/07/08 05:04:16;;;;;;;12.25;2.97;;;;;;;;;;5010155;28;20093;-60
2022/07/08 05:06:42;;;;;;;9.70;2.45;;;;;;;;;;5013577;28;20026;-61
2022/07/08 05:09:08;;;;;;;8.10;2.08;;;;;;;;;;5013474;28;20473;-60
2022/07/08 05:11:34;;;;;;;14.77;2.60;;;;;;;;;;5011642;28;20026;-59
2022/07/08 05:14:00;;;;;;;13.10;2.85;;;;;;;;;;5012149;28;20109;-60
2022/07/08 05:16:27;;;;;;;11.35;2.90;;;;;;;;;;5013214;28;20085;-60
2022/07/08 05:18:53;;;;;;;18.00;3.00;;;;;;;;;;5012268;28;20474;-60
2022/07/08 05:21:19;;;;;;;17.85;3.72;;;;;;;;;;5009953;28;20489;-60
2022/07/08 05:23:45;;;;;;;19.15;3.40;;;;;;;;;;5012652;28;20034;-60
2022/07/08 05:26:11;;;;;;;16.80;3.30;;;;;;;;;;5011561;28;20044;-60
2022/07/08 05:28:37;;;;;;;9.13;2.78;;;;;;;;;;5021721;28;20120;-61
2022/07/08 05:31:03;;;;;;;15.18;3.08;;;;;;;;;;5015278;28;20061;-61
2022/07/08 05:33:29;;;;;;;13.23;2.85;;;;;;;;;;5016610;28;20026;-61
2022/07/08 05:35:56;;;;;;;17.80;3.53;;;;;;;;;;5013906;28;20057;-59
2022/07/08 05:38:22;;;;;;;11.48;2.60;;;;;;;;;;5021611;28;20030;-60
2022/07/08 05:40:48;;;;;;;7.32;2.60;;;;;;;;;;5012854;28;20062;-60
2022/07/08 05:43:14;;;;;;;9.38;2.40;;;;;;;;;;5011278;28;20049;-60
2022/07/08 05:45:40;;;;;;;11.93;2.60;;;;;;;;;;5025005;28;20508;-59
2022/07/08 05:48:06;;;;;;;9.88;2.60;;;;;;;;;;5011571;28;20030;-60
2022/07/08 05:50:32;;;;;;;12.02;2.63;;;;;;;;;;5011996;28;20026;-61
2022/07/08 05:52:58;;;;;;;9.75;2.22;;;;;;;;;;5016088;28;20030;-59
2022/07/08 05:55:24;;;;;;;13.75;3.17;;;;;;;;;;5015400;28;20130;-60
2022/07/08 05:57:49;;;;;;;11.10;2.20;;;;;;;;;;5019843;28;20042;-60
2022/07/08 06:00:16;;;;;;;13.07;2.53;;;;;;;;;;5020548;28;20037;-60
2022/07/08 06:02:42;;;;;;;14.88;3.05;;;;;;;;;;5019258;28;20120;-60
2022/07/08 06:05:08;;;;;;;13.20;2.63;;;;;;;;;;5020227;28;20038;-60
2022/07/08 06:07:34;;;;;;;8.65;2.65;;;;;;;;;;5022537;28;20677;-59
2022/07/08 06:10:01;;;;;;;7.72;2.65;;;;;;;;;;5006352;28;20504;-61
2022/07/08 06:12:27;;;;;;;14.52;2.80;;;;;;;;;;5014040;28;20026;-60
2022/07/08 06:14:53;;;;;;;16.65;3.35;;;;;;;;;;5021514;28;20511;-60
2022/07/08 06:17:19;;;;;;;12.18;2.40;;;;;;;;;;5014613;28;20080;-61
2022/07/08 06:19:45;;;;;;;12.50;2.72;;;;;;;;;;5010865;28;20033;-60
2022/07/08 06:22:10;;;;;;;12.80;2.83;;;;;;;;;;5016597;28;20524;-60
2022/07/08 06:24:36;;;;;;;9.00;2.60;;;;;;;;;;5012988;28;20406;-61
2022/07/08 06:27:03;;;;;;;11.18;2.33;;;;;;;;;;5017378;28;20103;-61
2022/07/08 06:29:29;;;;;;;13.18;2.67;;;;;;;;;;5029614;28;20112;-61
2022/07/08 06:31:55;;;;;;;10.55;2.35;;;;;;;;;;5028497;28;20117;-61
2022/07/08 06:34:21;;;;;;;14.63;2.83;;;;;;;;;;5029434;28;20040;-59
2022/07/08 06:36:47;;;;;;;10.98;2.70;;;;;;;;;;5023841;28;20053;-60
2022/07/08 06:39:13;;;;;;;9.98;2.63;;;;;;;;;;5026721;28;20028;-61
2022/07/08 06:41:39;;;;;;;14.70;2.92;;;;;;;;;;5027436;28;20075;-60
2022/07/08 06:44:06;;;;;;;15.05;3.33;;;;;;;;;;5013084;28;20033;-61
2022/07/08 06:46:32;;;;;;;8.75;2.38;;;;;;;;;;5028893;28;20120;-61
2022/07/08 06:48:58;;;;;;;12.35;3.08;;;;;;;;;;5029013;28;20065;-61
2022/07/08 06:51:24;;;;;;;9.02;2.60;;;;;;;;;;5029252;28;20021;-61
2022/07/08 06:56:35;;;;;;;13.63;2.63;;;;;;;;;;5028694;28;20103;-61
2022/07/08 06:59:01;;;;;;;19.50;2.70;;;;;;;;;;5030988;28;20108;-60
2022/07/08 07:01:27;;;;;;;12.52;2.05;;;;;;;;;;5026149;28;20424;-61
2022/07/08 07:03:53;;;;;;;13.45;2.28;;;;;;;;;;5028685;28;20091;-62
2022/07/08 07:06:19;;;;;;;9.38;2.20;;;;;;;;;;5029347;28;20025;-60
2022/07/08 07:08:46;;;;;;;8.90;2.03;;;;;;;;;;5028328;28;20679;-60
2022/07/08 07:11:12;;;;;;;13.95;2.45;;;;;;;;;;5026373;28;21968;-61
2022/07/08 07:13:38;;;;;;;8.52;2.05;;;;;;;;;;5029563;28;20088;-60
2022/07/08 07:16:04;;;;;;;13.85;2.50;;;;;;;;;;5010255;28;20041;-61
2022/07/08 07:18:31;;;;;;;9.23;1.90;;;;;;;;;;5028216;28;20038;-61
2022/07/08 07:20:57;;;;;;;8.27;2.53;;;;;;;;;;5027989;28;20501;-61
2022/07/08 07:23:23;;;;;;;8.60;2.30;;;;;;;;;;5024574;28;20488;-61
2022/07/08 07:25:49;;;;;;;14.82;2.53;;;;;;;;;;5029994;28;20045;-61
2022/07/08 07:28:15;;;;;;;11.52;2.40;;;;;;;;;;5020994;28;20042;-61
2022/07/08 07:30:40;;;;;;;10.05;2.80;;;;;;;;;;5022663;28;20017;-61
2022/07/08 07:33:06;;;;;;;12.95;2.45;;;;;;;;;;5011562;28;20497;-61
2022/07/08 07:35:32;;;;;;;7.93;2.00;;;;;;;;;;5024278;28;20067;-58
2022/07/08 07:37:58;;;;;;;7.22;1.90;;;;;;;;;;5023623;28;20116;-61
2022/07/08 07:40:24;;;;;;;10.50;2.42;;;;;;;;;;5026166;28;20033;-60
2022/07/08 07:42:50;;;;;;;11.27;2.33;;;;;;;;;;5028260;28;20037;-62
2022/07/08 07:45:16;;;;;;;10.50;2.33;;;;;;;;;;5029320;28;20033;-60
2022/07/08 07:47:42;;;;;;;9.43;2.42;;;;;;;;;;5018514;28;20034;-60
2022/07/08 07:50:09;;;;;;;11.25;1.58;;;;;;;;;;5027619;28;20097;-60
2022/07/08 07:52:35;;;;;;;8.88;1.90;;;;;;;;;;5029768;28;20107;-60
2022/07/08 07:55:01;;;;;;;11.77;1.92;;;;;;;;;;5029757;28;20868;-60
2022/07/08 07:57:27;;;;;;;9.30;1.42;;;;;;;;;;5026522;28;20022;-60
2022/07/08 07:59:53;;;;;;;10.05;2.00;;;;;;;;;;5023370;28;20049;-60
2022/07/08 08:02:18;;;;;;;9.88;2.97;;;;;;;;;;5021557;28;20033;-60
2022/07/08 08:04:45;;;;;;;8.25;2.40;;;;;;;;;;5027732;28;20033;-60
2022/07/08 08:07:11;;;;;;;12.50;1.60;;;;;;;;;;5024751;28;20030;-59
2022/07/08 08:09:37;;;;;;;7.75;2.20;;;;;;;;;;5026965;28;20059;-60
2022/07/08 08:12:03;;;;;;;13.60;1.77;;;;;;;;;;5028396;28;20601;-62
2022/07/08 08:14:29;;;;;;;12.45;2.28;;;;;;;;;;5027055;28;20112;-60
2022/07/08 08:16:55;;;;;;;6.55;1.88;;;;;;;;;;5026939;28;20032;-60
2022/07/08 08:19:21;;;;;;;8.60;1.58;;;;;;;;;;5027504;28;20487;-61
2022/07/08 08:21:47;;;;;;;7.47;1.88;;;;;;;;;;5030848;28;20040;-61
2022/07/08 08:24:12;;;;;;;9.05;1.60;;;;;;;;;;5028203;28;20033;-61
2022/07/08 08:26:38;;;;;;;4.68;1.35;;;;;;;;;;5030707;28;20030;-59
2022/07/08 08:29:05;;;;;;;11.52;2.53;;;;;;;;;;5030459;28;20116;-61
2022/07/08 08:31:31;;;;;;;6.65;1.55;;;;;;;;;;5030655;28;20031;-60
2022/07/08 08:33:57;;;;;;;8.63;1.80;;;;;;;;;;5030851;28;20037;-60
2022/07/08 08:36:23;;;;;;;10.25;2.28;;;;;;;;;;5033939;28;20036;-60
2022/07/08 08:38:50;;;;;;;8.07;1.40;;;;;;;;;;5026371;28;20034;-60
2022/07/08 08:41:16;;;;;;;12.70;1.88;;;;;;;;;;5033758;28;20029;-60
2022/07/08 08:43:42;;;;;;;7.32;1.65;;;;;;;;;;5034191;28;20034;-60
2022/07/08 08:46:08;;;;;;;9.85;2.10;;;;;;;;;;5030672;28;20032;-57
2022/07/08 08:48:39;;;;;;;7.18;1.60;;;;;;;;;;5029771;28;20030;-61
2022/07/08 08:51:07;;;;;;;5.47;1.50;;;;;;;;;;5021902;28;20030;-60
2022/07/08 08:53:41;;;;;;;8.02;1.65;;;;;;;;;;5030651;28;20033;-61
2022/07/08 08:56:10;;;;;;;7.72;1.30;;;;;;;;;;5033316;28;20053;-61
2022/07/08 08:58:38;;;;;;;7.45;2.30;;;;;;;;;;5026503;28;20380;-59
2022/07/08 09:01:06;;;;;;;7.80;2.08;;;;;;;;;;5027750;28;20056;-59
2022/07/08 09:03:32;;;;;;;10.88;1.75;;;;;;;;;;5023625;28;20032;-60
2022/07/08 09:05:58;;;;;;;7.22;1.80;;;;;;;;;;5027524;28;20433;-59
2022/07/08 09:08:24;;;;;;;10.23;1.95;;;;;;;;;;5022655;28;20648;-59
2022/07/08 09:10:50;;;;;;;12.85;1.85;;;;;;;;;;5027450;28;20515;-60
2022/07/08 09:13:16;;;;;;;7.68;1.52;;;;;;;;;;5029484;28;20029;-60
2022/07/08 09:15:43;;;;;;;11.52;2.33;;;;;;;;;;5033966;28;20025;-60
2022/07/08 09:18:13;;;;;;;10.40;2.15;;;;;;;;;;5030628;28;20033;-60
2022/07/08 09:20:40;;;;;;;13.25;2.00;;;;;;;;;;5031367;28;20029;-59
2022/07/08 09:23:11;;;;;;;15.10;2.10;;;;;;;;;;5029913;28;20033;-60
2022/07/08 09:25:37;;;;;;;7.93;1.88;;;;;;;;;;5032855;28;20040;-60
2022/07/08 09:28:03;;;;;;;11.57;2.97;;;;;;;;;;5027046;28;20053;-59
2022/07/08 09:30:30;;;;;;;4.80;1.67;;;;;;;;;;5026465;28;20040;-59
2022/07/08 09:32:57;;;;;;;6.10;1.92;;;;;;;;;;5028623;28;20032;-60
2022/07/08 09:35:30;;;;;;;8.00;1.75;;;;;;;;;;5031048;28;20067;-60
2022/07/08 09:37:56;;;;;;;8.55;1.60;;;;;;;;;;5022324;28;20071;-60
2022/07/08 09:40:22;;;;;;;11.20;2.08;;;;;;;;;;5029934;28;20026;-59
2022/07/08 09:42:48;;;;;;;7.82;1.92;;;;;;;;;;5033677;28;20468;-60
2022/07/08 09:45:14;;;;;;;6.70;1.63;;;;;;;;;;5025808;28;20095;-60
2022/07/08 09:47:40;;;;;;;11.07;2.00;;;;;;;;;;5026007;28;20021;-59
2022/07/08 09:50:08;;;;;;;15.10;2.45;;;;;;;;;;5031847;28;20033;-60
2022/07/08 09:52:34;;;;;;;7.07;1.52;;;;;;;;;;5032773;28;20087;-61
2022/07/08 09:55:04;;;;;;;8.68;1.90;;;;;;;;;;5032619;28;20025;-60
2022/07/08 09:57:31;;;;;;;5.55;1.70;;;;;;;;;;5027062;28;20041;-58
2022/07/08 09:59:57;;;;;;;9.95;2.03;;;;;;;;;;5030748;28;20041;-60
2022/07/08 10:02:24;;;;;;;7.78;2.53;;;;;;;;;;5031203;28;20040;-60
2022/07/08 10:04:50;;;;;;;8.18;1.73;;;;;;;;;;5025350;28;20100;-60
2022/07/08 10:07:16;;;;;;;4.60;1.23;;;;;;;;;;5029942;28;20025;-60
2022/07/08 10:09:43;;;;;;;10.02;1.90;;;;;;;;;;5029220;28;20414;-58
2022/07/08 10:12:11;;;;;;;6.07;1.50;;;;;;;;;;5028686;28;20029;-60
2022/07/08 10:14:37;;;;;;;7.47;1.40;;;;;;;;;;5029289;28;20025;-59
2022/07/08 10:17:07;;;;;;;11.25;2.00;;;;;;;;;;5029137;28;20037;-59
2022/07/08 10:19:35;;;;;;;8.48;1.92;;;;;;;;;;5028507;28;20037;-60
2022/07/08 10:22:03;;;;;;;6.05;1.70;;;;;;;;;;5022826;28;20057;-60
2022/07/08 10:24:30;;;;;;;8.98;1.75;;;;;;;;;;5017543;28;20482;-60
2022/07/08 10:27:01;;;;;;;7.78;1.52;;;;;;;;;;5029322;28;20085;-60
2022/07/08 10:29:31;;;;;;;5.35;0.93;;;;;;;;;;5025995;28;20469;-61
2022/07/08 10:31:58;;;;;;;6.57;1.20;;;;;;;;;;5027441;28;20017;-60
2022/07/08 10:34:30;;;;;;;6.78;1.27;;;;;;;;;;5030756;28;20477;-60
2022/07/08 10:36:56;;;;;;;10.00;1.00;;;;;;;;;;5028610;28;20120;-60
2022/07/08 10:39:29;;;;;;;6.32;1.63;;;;;;;;;;5026180;28;20113;-60
2022/07/08 10:41:57;;;;;;;5.38;1.13;;;;;;;;;;5028530;28;20080;-60
2022/07/08 10:44:42;;;;;;;4.57;1.17;;;;;;;;;;5022111;28;20040;-60
2022/07/08 10:47:11;;;;;;;9.45;1.48;;;;;;;;;;5025317;28;20068;-60
2022/07/08 10:49:44;;;;;;;5.20;1.40;;;;;;;;;;5021778;28;20033;-59
2022/07/08 10:52:10;;;;;;;8.75;1.52;;;;;;;;;;5022514;28;20017;-59
2022/07/08 10:54:37;;;;;;;3.40;0.88;;;;;;;;;;5026002;28;20435;-60
2022/07/08 10:57:14;;;;;;;4.10;1.33;;;;;;;;;;5027290;28;20476;-60
2022/07/08 10:59:40;;;;;;;9.07;1.30;;;;;;;;;;5028934;28;20033;-61
2022/07/08 11:02:09;;;;;;;6.70;1.25;;;;;;;;;;5031203;28;20035;-61
2022/07/08 11:04:35;;;;;;;5.53;1.20;;;;;;;;;;5027981;28;20026;-61
2022/07/08 11:07:28;;;;;;;9.38;1.40;;;;;;;;;;5030965;28;20494;-60
2022/07/08 11:09:56;;;;;;;8.38;1.42;;;;;;;;;;5023147;28;20025;-60
2022/07/08 11:12:30;;;;;;;4.20;0.80;;;;;;;;;;5027497;28;20366;-60
2022/07/08 11:14:57;;;;;;;6.10;1.02;;;;;;;;;;5023203;28;20038;-60
2022/07/08 11:17:25;;;;;;;5.93;0.88;;;;;;;;;;5020681;28;20033;-60
2022/07/08 11:19:52;;;;;;;3.15;1.02;;;;;;;;;;5027195;28;20028;-60
2022/07/08 11:22:19;;;;;;;8.93;2.33;;;;;;;;;;5029624;28;20045;-60
2022/07/08 11:24:46;;;;;;;3.60;0.90;;;;;;;;;;5029766;28;20384;-60
2022/07/08 11:27:12;;;;;;;5.53;1.10;;;;;;;;;;5030552;28;20050;-60
2022/07/08 11:29:45;;;;;;;5.68;1.10;;;;;;;;;;5029015;28;20043;-60
2022/07/08 11:32:11;;;;;;;7.20;1.15;;;;;;;;;;5024224;28;20025;-61
2022/07/08 11:34:37;;;;;;;4.57;1.00;;;;;;;;;;5028732;28;20033;-60
2022/07/08 11:37:04;;;;;;;5.82;1.00;;;;;;;;;;5031998;28;20088;-59
2022/07/08 11:39:30;;;;;;;4.78;0.98;;;;;;;;;;5029299;28;20567;-61
2022/07/08 11:41:56;;;;;;;4.93;1.00;;;;;;;;;;5030657;28;20037;-61
2022/07/08 11:44:22;;;;;;;7.32;1.08;;;;;;;;;;5030300;28;20548;-61
2022/07/08 11:46:49;;;;;;;4.15;0.90;;;;;;;;;;5027015;28;20576;-61
2022/07/08 11:49:16;;;;;;;4.28;1.05;;;;;;;;;;5029114;28;20040;-61
2022/07/08 11:51:45;;;;;;;3.03;1.20;;;;;;;;;;5029343;28;20028;-61
2022/07/08 11:54:12;;;;;;;3.00;0.80;;;;;;;;;;5030717;28;20025;-60
2022/07/08 11:56:38;;;;;;;3.13;0.80;;;;;;;;;;5030417;28;20120;-61
2022/07/08 11:59:04;;;;;;;4.30;0.70;;;;;;;;;;5030362;28;20084;-59
2022/07/08 12:01:30;;;;;;;5.35;0.88;;;;;;;;;;5031737;28;20175;-60
2022/07/08 12:03:57;;;;;;;8.63;1.52;;;;;;;;;;5028241;28;20163;-60
2022/07/08 12:06:24;;;;;;;5.53;1.10;;;;;;;;;;5035715;28;20477;-60
2022/07/08 12:08:49;;;;;;;7.97;1.00;;;;;;;;;;5030818;28;20025;-60
2022/07/08 12:11:20;;;;;;;9.18;1.85;;;;;;;;;;5010230;28;20025;-61
2022/07/08 12:13:50;;;;;;;6.55;1.60;;;;;;;;;;5029768;28;21920;-58
2022/07/08 12:16:29;;;;;;;5.75;0.90;;;;;;;;;;5026242;28;20029;-60
2022/07/08 12:18:55;;;;;;;5.80;0.88;;;;;;;;;;5029668;28;20045;-61
2022/07/08 12:21:21;;;;;;;4.88;1.10;;;;;;;;;;5029891;28;20080;-60
2022/07/08 12:24:04;;;;;;;6.95;1.50;;;;;;;;;;5028612;28;20026;-61
2022/07/08 12:26:30;;;;;;;4.88;0.80;;;;;;;;;;5025079;28;20068;-61
2022/07/08 12:28:56;;;;;;;5.82;1.25;;;;;;;;;;5029926;28;20037;-60
2022/07/08 12:31:38;;;;;;;5.93;1.08;;;;;;;;;;5027527;28;20034;-60
2022/07/08 12:34:05;;;;;;;3.20;0.90;;;;;;;;;;5028461;28;20025;-60
2022/07/08 12:36:35;;;;;;;5.82;1.30;;;;;;;;;;5027353;28;20033;-60
2022/07/08 12:39:11;;;;;;;4.78;1.00;;;;;;;;;;5032058;28;20496;-60
2022/07/08 12:41:37;;;;;;;5.68;1.15;;;;;;;;;;5030077;28;20468;-61
2022/07/08 12:44:22;;;;;;;5.57;1.00;;;;;;;;;;5028734;28;20030;-61
2022/07/08 12:46:48;;;;;;;4.28;1.50;;;;;;;;;;5032189;28;20493;-61
2022/07/08 12:49:22;;;;;;;8.18;1.75;;;;;;;;;;5024544;28;20048;-60
2022/07/08 12:51:48;;;;;;;5.65;1.33;;;;;;;;;;5027902;28;20025;-60
2022/07/08 12:54:15;;;;;;;6.80;1.60;;;;;;;;;;5035873;28;20048;-59
2022/07/08 12:56:41;;;;;;;6.65;1.40;;;;;;;;;;5027697;28;20092;-59
2022/07/08 12:59:07;;;;;;;7.18;1.23;;;;;;;;;;5030447;28;20038;-60
2022/07/08 13:01:33;;;;;;;12.32;1.40;;;;;;;;;;5033327;28;20032;-61
2022/07/08 13:03:59;;;;;;;6.68;0.80;;;;;;;;;;5030597;28;20092;-60
2022/07/08 13:06:25;;;;;;;5.78;0.90;;;;;;;;;;5028175;28;20372;-60
2022/07/08 13:08:50;;;;;;;4.28;1.83;;;;;;;;;;5023786;28;20402;-59
2022/07/08 13:11:16;;;;;;;6.22;1.30;;;;;;;;;;5031425;28;20021;-61
2022/07/08 13:13:42;;;;;;;3.47;1.20;;;;;;;;;;5015276;28;20029;-60
2022/07/08 13:16:08;;;;;;;5.95;1.27;;;;;;;;;;5033204;28;20072;-60
2022/07/08 13:18:34;;;;;;;5.50;1.02;;;;;;;;;;5033165;28;20100;-60
2022/07/08 13:21:00;;;;;;;3.30;0.95;;;;;;;;;;5029278;28;20556;-60
2022/07/08 13:23:26;;;;;;;6.78;1.13;;;;;;;;;;5038494;28;20516;-61
2022/07/08 13:25:52;;;;;;;4.18;0.90;;;;;;;;;;5031006;28;20036;-60
2022/07/08 13:28:18;;;;;;;6.32;1.25;;;;;;;;;;5028603;28;20137;-60
2022/07/08 13:30:44;;;;;;;7.68;1.48;;;;;;;;;;5029096;28;20017;-59
2022/07/08 13:33:10;;;;;;;7.13;1.10;;;;;;;;;;5032733;28;20072;-61
2022/07/08 13:35:36;;;;;;;9.27;1.25;;;;;;;;;;5032634;28;20033;-60
2022/07/08 13:38:02;;;;;;;6.35;1.25;;;;;;;;;;5025692;28;20184;-60
2022/07/08 13:40:28;;;;;;;7.50;1.48;;;;;;;;;;5028109;28;20393;-60
2022/07/08 13:42:54;;;;;;;5.78;1.30;;;;;;;;;;5029184;28;20029;-60
2022/07/08 13:45:20;;;;;;;6.30;1.08;;;;;;;;;;5030340;28;20028;-60
2022/07/08 13:47:46;;;;;;;6.78;1.30;;;;;;;;;;5028699;28;20037;-60
2022/07/08 13:50:12;;;;;;;3.53;1.15;;;;;;;;;;5028283;28;20145;-60
2022/07/08 13:52:38;;;;;;;5.40;1.40;;;;;;;;;;5029484;28;20022;-60
2022/07/08 13:55:05;;;;;;;3.70;1.00;;;;;;;;;;5027533;28;20036;-61
2022/07/08 13:57:31;;;;;;;4.72;1.02;;;;;;;;;;5030622;28;20152;-60
2022/07/08 13:59:57;;;;;;;9.52;1.25;;;;;;;;;;5030058;28;20172;-60
2022/07/08 14:02:23;;;;;;;4.25;1.27;;;;;;;;;;5023368;28;20551;-59
2022/07/08 14:04:49;;;;;;;7.70;2.10;;;;;;;;;;5021786;28;20034;-60
2022/07/08 14:07:15;;;;;;;3.22;1.17;;;;;;;;;;5021388;28;20515;-60
2022/07/08 14:09:41;;;;;;;6.90;0.95;;;;;;;;;;5023254;28;20434;-59
2022/07/08 14:12:10;;;;;;;1.90;0.73;;;;;;;;;;5027671;28;20022;-60
2022/07/08 14:14:36;;;;;;;3.45;0.70;;;;;;;;;;5005804;28;20032;-60
2022/07/08 14:17:02;;;;;;;8.07;1.25;;;;;;;;;;5020402;28;20039;-59
2022/07/08 14:19:28;;;;;;;3.20;0.90;;;;;;;;;;5026295;28;20029;-60
2022/07/08 14:21:56;;;;;;;4.43;1.25;;;;;;;;;;5021564;28;20109;-59
2022/07/08 14:24:23;;;;;;;4.30;0.77;;;;;;;;;;5024000;28;20536;-59
2022/07/08 14:26:49;;;;;;;2.08;0.82;;;;;;;;;;5020374;28;20075;-60
2022/07/08 14:29:15;;;;;;;3.28;0.52;;;;;;;;;;5021769;28;20030;-59
2022/07/08 14:31:41;;;;;;;0.75;0.63;;;;;;;;;;5021598;28;20021;-59
2022/07/08 14:34:07;;;;;;;3.17;1.17;;;;;;;;;;5022162;28;20037;-60
2022/07/08 14:36:33;;;;;;;2.92;0.70;;;;;;;;;;5022062;28;20080;-58
2022/07/08 14:38:59;;;;;;;3.25;0.63;;;;;;;;;;5020626;28;20504;-60